Latest Weather Observations for Kuitpo

IDS60901

Issued at 2:11 pm CST Sunday 18 August 2019 (issued every 10 minutes, with the page automatically refreshed every 10 minutes)

About weather observations | Map of Adelaide area stations | Latest observations for Adelaide area | Other Formats
Station Details ID: 023887 Name: KUITPO FOREST RESERVE Lat: -35.17 Lon: 138.68 Height: 365.0 m
Data from the previous 72 hours. | See also: Recent months at Kuitpo
Date/Time
CST
Temp
°C
App
Temp
°C
Dew
Point
°C
Rel
Hum
%
Delta-T
°C
Wind Press
QNH
hPa
Press
MSL
hPa
Rain since
9am
mm
Dir  Spd
km/h
Gust
km/h
Spd
kts
Gust
kts
18/02:00pm 6.3 1.8 4.3 87 0.9 W 17 30 9 16 1009.8 1010.0 1.6
18/01:30pm 7.3 1.7 3.7 78 1.6 WNW 22 35 12 19 1009.6 1009.8 1.0
18/01:00pm 7.7 1.6 3.0 72 2.0 W 24 41 13 22 1009.2 1009.3 1.0
18/12:30pm 6.4 1.4 4.7 89 0.8 W 20 32 11 17 1009.1 1009.2 1.0
18/12:00pm 5.1 -1.8 4.5 96 0.3 WSW 30 52 16 28 1009.8 1010.0 1.0
18/11:38am 5.7 -0.8 4.8 94 0.4 W 28 63 15 34 1009.4 1009.6 1.0
18/11:30am 6.1 0.9 5.5 96 0.3 W 22 33 12 18 1009.3 1009.5 1.0
18/11:06am 5.4 -1.5 4.5 94 0.4 W 30 50 16 27 1009.0 1009.1 1.0
18/11:00am 6.2 0.2 5.5 95 0.3 W 26 41 14 22 1009.0 1009.1 1.0
18/10:30am 5.2 -1.3 4.8 97 0.2 W 28 46 15 25 1009.1 1009.2 0.8
18/10:00am 5.4 -3.8 3.6 88 0.8 W 41 69 22 37 1008.8 1008.9 0.2
18/09:48am 8.0 0.7 4.4 78 1.6 WNW 32 69 17 37 1008.2 1008.3 0.0
18/09:43am 8.4 2.1 5.5 82 1.3 WNW 28 46 15 25 1008.4 1008.5 0.0
18/09:30am 7.9 1.6 5.5 85 1.1 WNW 28 44 15 24 1008.3 1008.4 0.0
18/09:00am 7.4 1.3 5.0 85 1.1 W 26 43 14 23 1008.4 1008.5 7.8
18/08:41am 7.1 0.3 5.1 87 0.9 W 30 56 16 30 1008.3 1008.4 7.8
18/08:30am 7.1 0.6 4.8 85 1.0 W 28 44 15 24 1008.2 1008.3 7.8
18/08:00am 7.8 -1.2 4.7 81 1.4 W 41 61 22 33 1007.8 1007.9 7.8
18/07:47am 8.1 0.3 4.9 80 1.4 W 35 69 19 37 1007.3 1007.5 7.8
18/07:30am 8.0 1.6 5.3 83 1.2 WNW 28 46 15 25 1007.6 1007.7 7.8
18/07:00am 7.8 1.6 6.3 90 0.7 WNW 28 46 15 25 1007.2 1007.4 7.8
18/06:48am 7.8 1.7 6.7 93 0.5 WNW 28 48 15 26 1006.9 1007.0 7.8
18/06:30am 8.9 3.7 7.2 89 0.8 NW 24 37 13 20 1006.9 1007.0 6.8
18/06:00am 9.0 3.9 7.5 90 0.7 WNW 24 39 13 21 1007.0 1007.2 6.8
18/05:30am 9.2 3.9 8.3 94 0.4 NW 26 43 14 23 1007.0 1007.2 6.8
18/05:00am 9.3 5.2 8.8 97 0.2 NW 20 30 11 16 1007.6 1007.7 6.8
18/04:30am 9.6 5.3 9.3 98 0.2 WNW 22 35 12 19 1007.3 1007.5 6.8
18/04:00am 9.7 5.0 9.4 98 0.2 WNW 24 39 13 21 1007.1 1007.3 6.8
18/03:30am 9.6 5.9 9.3 98 0.2 NW 19 32 10 17 1007.3 1007.5 6.6
18/03:00am 10.0 6.3 9.4 96 0.3 WNW 19 33 10 18 1007.9 1008.0 4.6
18/02:30am 10.5 7.1 9.3 92 0.6 NW 17 28 9 15 1007.9 1008.0 1.2
18/02:00am 11.4 7.0 8.8 84 1.3 WNW 22 33 12 18 1007.8 1007.9 0.4
18/01:30am 12.8 8.3 7.0 68 2.9 WNW 20 35 11 19 1008.0 1008.1 0.0
18/01:00am 13.0 8.9 7.7 70 2.7 NW 19 32 10 17 1008.0 1008.1 0.0
18/12:30am 13.4 9.6 7.6 68 2.9 NW 17 26 9 14 1007.9 1008.0 0.0
18/12:00am 14.0 9.8 7.5 65 3.3 NW 19 30 10 16 1008.1 1008.2 0.0
 
Date/Time
CST
Temp
°C
App
Temp
°C
Dew
Point
°C
Rel
Hum
%
Delta-T
°C
Wind Press
QNH
hPa
Press
MSL
hPa
Rain since
9am
mm
Dir  Spd
km/h
Gust
km/h
Spd
kts
Gust
kts
17/11:30pm 14.3 10.5 7.4 63 3.5 NW 17 24 9 13 1008.2 1008.3 0.0
17/11:00pm 14.9 11.0 7.2 60 3.9 NW 17 26 9 14 1008.5 1008.6 0.0
17/10:30pm 14.6 11.5 7.2 61 3.7 NW 13 19 7 10 1008.6 1008.7 0.0
17/10:00pm 12.8 10.9 7.5 70 2.6 NNE 7 11 4 6 1009.0 1009.1 0.0
17/09:30pm 12.5 10.2 7.6 72 2.4 NE 9 13 5 7 1009.2 1009.3 0.0
17/09:00pm 12.2 9.6 7.7 74 2.2 NE 11 17 6 9 1009.5 1009.7 0.0
17/08:30pm 12.2 9.6 7.9 75 2.2 NNE 11 15 6 8 1009.5 1009.7 0.0
17/08:00pm 12.4 9.8 7.9 74 2.3 NNE 11 17 6 9 1009.9 1010.1 0.0
17/07:30pm 12.8 10.3 8.1 73 2.4 NNE 11 20 6 11 1010.0 1010.2 0.0
17/07:00pm 13.2 10.3 8.1 71 2.6 NNE 13 19 7 10 1009.9 1010.1 0.0
17/06:30pm 13.5 10.2 8.1 70 2.7 NNE 15 24 8 13 1009.8 1010.0 0.0
17/06:00pm 13.7 10.4 8.1 69 2.8 NNE 15 26 8 14 1009.8 1010.0 0.0
17/05:30pm 14.0 11.5 8.0 67 3.0 N 11 19 6 10 1010.5 1010.6 0.0
17/05:00pm 14.4 11.9 8.1 66 3.2 N 11 19 6 10 1010.6 1010.7 0.0
17/04:30pm 14.6 12.3 7.4 62 3.6 N 9 19 5 10 1010.7 1010.8 0.0
17/04:00pm 14.9 12.3 7.7 62 3.6 NNE 11 20 6 11 1010.8 1010.9 0.0
17/03:30pm 15.0 12.5 8.0 63 3.6 N 11 19 6 10 1011.0 1011.1 0.0
17/03:00pm 15.1 12.1 7.9 62 3.7 N 13 22 7 12 1011.6 1011.8 0.0
17/02:30pm 14.8 10.5 7.1 60 3.9 N 19 30 10 16 1011.5 1011.6 0.0
17/02:00pm 16.2 12.5 7.9 58 4.3 NNW 17 30 9 16 1012.4 1012.6 0.0
17/01:30pm 15.5 11.2 7.0 57 4.3 NW 19 30 10 16 1012.9 1013.1 0.0
17/01:00pm 14.7 9.9 5.8 55 4.3 NW 20 30 11 16 1013.6 1013.7 0.0
17/12:30pm 14.9 11.2 6.5 57 4.2 NNW 15 24 8 13 1014.1 1014.3 0.0
17/12:00pm 14.6 10.3 5.1 53 4.5 N 17 28 9 15 1014.7 1014.9 0.0
17/11:30am 14.2 10.6 6.6 60 3.7 NNW 15 26 8 14 1015.2 1015.4 0.0
17/11:00am 13.6 10.6 6.0 60 3.7 NNE 11 20 6 11 1015.5 1015.7 0.0
17/10:30am 12.4 9.5 6.5 67 2.9 NNE 11 20 6 11 1016.0 1016.2 0.0
17/10:00am 11.1 7.3 6.0 71 2.4 NNE 15 28 8 15 1016.4 1016.6 0.0
17/09:30am 9.5 4.9 5.5 76 1.9 NE 19 28 10 15 1016.8 1017.0 0.0
17/09:00am 8.5 4.2 5.4 81 1.4 NE 17 26 9 14 1017.1 1017.3 1.4
17/08:30am 7.1 2.3 4.4 83 1.2 NE 19 30 10 16 1017.3 1017.5 1.4
17/08:00am 6.0 1.5 4.0 87 0.9 NE 17 22 9 12 1017.6 1017.8 1.4
17/07:30am 5.0 0.8 3.8 92 0.5 NE 15 20 8 11 1017.9 1018.1 1.4
17/07:00am 4.5 -0.5 3.6 94 0.4 NE 19 24 10 13 1017.7 1017.9 1.4
17/06:30am 4.6 0.4 3.7 94 0.4 NE 15 19 8 10 1017.9 1018.1 1.4
17/06:00am 4.9 0.3 3.9 93 0.4 NE 17 22 9 12 1017.7 1017.9 1.4
17/05:30am 4.7 0.5 3.7 93 0.4 NE 15 20 8 11 1017.7 1017.9 1.4
17/05:00am 5.2 0.6 3.5 89 0.7 NE 17 24 9 13 1017.5 1017.7 1.4
17/04:30am 5.5 1.3 4.0 90 0.6 ENE 15 24 8 13 1017.6 1017.8 1.4
17/04:00am 5.6 1.8 3.8 88 0.8 ENE 13 19 7 10 1017.8 1018.0 1.4
17/03:30am 5.9 1.7 3.7 86 0.9 ENE 15 20 8 11 1018.1 1018.3 1.4
17/03:00am 6.4 2.6 3.9 84 1.1 ENE 13 20 7 11 1018.2 1018.4 1.4
17/02:30am 6.3 2.1 3.8 84 1.1 ENE 15 20 8 11 1018.6 1018.9 1.4
17/02:00am 6.2 2.0 3.7 84 1.1 ENE 15 19 8 10 1019.1 1019.3 1.4
17/01:30am 6.0 1.8 3.7 85 1.0 ENE 15 20 8 11 1019.3 1019.5 1.4
17/01:00am 5.9 1.7 3.6 85 1.0 ENE 15 19 8 10 1019.5 1019.7 1.4
17/12:30am 6.1 1.9 3.8 85 1.0 E 15 20 8 11 1019.4 1019.6 1.4
17/12:00am 5.9 1.7 3.6 85 1.0 E 15 19 8 10 1019.5 1019.7 1.4
 
Date/Time
CST
Temp
°C
App
Temp
°C
Dew
Point
°C
Rel
Hum
%
Delta-T
°C
Wind Press
QNH
hPa
Press
MSL
hPa
Rain since
9am
mm
Dir  Spd
km/h
Gust
km/h
Spd
kts
Gust
kts
16/11:30pm 6.0 2.1 3.5 84 1.1 ESE 13 17 7 9 1019.7 1019.9 1.4
16/11:00pm 6.2 2.3 3.5 83 1.2 ESE 13 17 7 9 1019.9 1020.1 1.4
16/10:30pm 6.4 2.6 3.7 83 1.2 ESE 13 17 7 9 1019.9 1020.1 1.4
16/10:00pm 6.5 3.1 3.8 83 1.2 ESE 11 15 6 8 1020.0 1020.2 1.4
16/09:30pm 7.2 3.8 4.2 81 1.3 SE 11 15 6 8 1020.1 1020.3 1.4
16/09:00pm 7.3 4.0 4.4 82 1.3 ESE 11 15 6 8 1020.2 1020.4 1.4
16/08:30pm 7.6 4.3 4.7 82 1.3 SE 11 15 6 8 1020.1 1020.3 1.4
16/08:00pm 7.5 4.6 4.6 82 1.3 SE 9 15 5 8 1020.2 1020.4 1.4
16/07:30pm 8.0 5.1 4.9 81 1.4 SSE 9 15 5 8 1020.0 1020.2 1.4
16/07:00pm 8.2 5.5 5.5 83 1.2 S 9 15 5 8 1019.7 1019.9 1.4
16/06:30pm 8.3 5.3 5.9 85 1.1 SSE 11 17 6 9 1019.5 1019.7 1.4
16/06:00pm 8.6 6.0 6.2 85 1.1 SSE 9 15 5 8 1019.3 1019.5 1.4
16/05:30pm 8.8 6.0 6.8 87 0.9 SSE 11 19 6 10 1018.9 1019.2 1.4
16/05:00pm 9.1 6.0 7.1 87 1.0 SSE 13 24 7 13 1018.7 1019.0 1.4
16/04:30pm 9.4 6.3 7.2 86 1.1 SSE 13 22 7 12 1018.5 1018.7 1.4
16/04:00pm 9.7 6.6 7.3 85 1.2 SSE 13 20 7 11 1018.4 1018.6 1.4
16/03:30pm 10.0 7.0 7.8 86 1.1 S 13 20 7 11 1018.2 1018.4 1.4
16/03:00pm 10.0 7.1 8.3 89 0.8 S 13 20 7 11 1018.0 1018.2 1.4
16/02:30pm 9.7 6.1 8.5 92 0.6 SSE 17 26 9 14 1017.6 1017.8 1.4
16/02:00pm 10.7 8.1 9.5 92 0.6 SSE 13 20 7 11 1017.5 1017.7 1.4
16/01:30pm 10.1 7.2 9.5 96 0.3 S 15 24 8 13 1017.5 1017.7 1.4
16/01:00pm 10.3 7.4 9.8 97 0.3 S 15 24 8 13 1017.4 1017.6 1.4
16/12:30pm 11.4 9.4 10.0 91 0.7 SSW 11 17 6 9 1017.5 1017.7 1.0
16/12:00pm 10.6 7.7 9.7 94 0.5 S 15 22 8 12 1017.5 1017.7 1.0
16/11:30am 11.1 8.0 10.3 95 0.4 SSW 17 24 9 13 1017.4 1017.6 1.0
16/11:00am 11.2 8.7 11.2 100 0.0 S 15 24 8 13 1017.1 1017.3 1.0
16/10:30am 11.0 8.5 11.0 100 0.0 SSW 15 24 8 13 1016.8 1017.0 1.0
16/10:00am 11.1 8.6 11.1 100 0.0 SW 15 24 8 13 1016.4 1016.6 0.8
16/09:30am 10.7 7.3 10.7 100 0.0 WSW 19 32 10 17 1016.0 1016.2 0.6
16/09:00am 10.5 6.1 10.5 100 0.0 WNW 24 37 13 20 1015.5 1015.7 0.0
16/08:30am 10.3 5.1 10.3 100 0.0 WNW 28 43 15 23 1015.0 1015.2 0.0
16/08:00am 10.2 5.7 10.2 100 0.0 WNW 24 37 13 20 1014.7 1014.9 0.0
16/07:30am 10.2 6.0 9.9 98 0.2 WNW 22 33 12 18 1014.4 1014.6 0.0
16/07:00am 10.2 6.0 9.6 96 0.3 NW 22 35 12 19 1014.1 1014.3 0.0
16/06:30am 10.0 6.2 9.7 98 0.2 NW 20 39 11 21 1014.2 1014.4 0.0
16/06:00am 10.4 6.7 10.1 98 0.2 W 20 33 11 18 1014.1 1014.3 0.0
16/05:30am 10.6 6.0 9.5 93 0.6 WNW 24 43 13 23 1014.2 1014.4 0.0
16/05:00am 11.2 6.5 7.9 80 1.6 WNW 22 35 12 19 1014.1 1014.3 0.0
16/04:30am 11.3 6.8 7.0 75 2.1 NW 20 33 11 18 1013.6 1013.7 0.0
16/04:00am 11.8 6.6 5.7 66 2.9 NW 22 32 12 17 1013.6 1013.7 0.0
16/03:30am 12.2 7.1 4.2 58 3.7 NW 20 35 11 19 1013.5 1013.6 0.0
16/03:00am 12.7 7.0 0.5 43 5.2 NW 20 30 11 16 1013.2 1013.4 0.0
16/02:30am 13.1 7.5 -0.2 40 5.6 NNW 19 30 10 16 1013.2 1013.4 0.0
16/02:00am 13.8 7.5 -1.0 36 6.2 NW 22 35 12 19 1013.5 1013.6 0.0
16/01:30am 14.0 7.2 -1.6 34 6.4 NW 24 35 13 19 1013.8 1013.9 0.0
16/01:00am 14.2 7.3 -2.7 31 6.8 NNW 24 41 13 22 1013.1 1013.3 0.0
16/12:30am 14.5 8.0 -2.4 31 6.9 NNW 22 39 12 21 1013.5 1013.6 0.0
16/12:00am 15.5 7.7 -3.4 27 7.6 NNW 28 46 15 25 1013.4 1013.5 0.0
 
Date/Time
CST
Temp
°C
App
Temp
°C
Dew
Point
°C
Rel
Hum
%
Delta-T
°C
Wind Press
QNH
hPa
Press
MSL
hPa
Rain since
9am
mm
Dir  Spd
km/h
Gust
km/h
Spd
kts
Gust
kts
15/11:32pm 16.1 8.3 -3.4 26 7.9 NNW 28 50 15 27 1013.5 1013.6 0.0
15/11:30pm 15.9 8.2 -3.0 27 7.7 NNW 28 44 15 24 1013.5 1013.6 0.0
15/11:07pm 16.0 8.2 -3.5 26 7.9 NNW 28 52 15 28 1013.5 1013.6 0.0
15/11:00pm 16.2 9.3 -2.8 27 7.8 NNW 24 43 13 23 1013.8 1013.9 0.0
15/10:30pm 16.1 8.8 -2.9 27 7.8 NNW 26 54 14 29 1013.9 1014.0 0.0
15/10:00pm 16.2 8.5 -2.8 27 7.8 NNW 28 50 15 27 1013.9 1014.0 0.0
15/09:55pm 16.3 8.6 -2.7 27 7.8 NNW 28 48 15 26 1013.9 1014.0 0.0
15/09:30pm 15.8 9.0 -1.7 30 7.3 N 24 46 13 25 1013.7 1013.8 0.0
15/09:00pm 15.6 8.8 -1.9 30 7.3 NNW 24 50 13 27 1013.7 1013.8 0.0
15/08:30pm 15.8 9.1 -1.3 31 7.2 N 24 48 13 26 1013.9 1014.0 0.0
15/08:00pm 15.7 9.5 -0.1 34 6.8 N 22 44 12 24 1014.0 1014.2 0.0
15/07:30pm 15.1 9.1 1.3 39 6.1 N 22 44 12 24 1013.8 1013.9 0.0
15/07:00pm 14.6 9.6 3.7 48 5.1 N 19 32 10 17 1013.8 1013.9 0.0
15/06:30pm 14.6 9.5 4.0 49 5.0 N 20 35 11 19 1013.8 1013.9 0.0
15/06:00pm 13.9 10.2 4.2 52 4.5 N 13 24 7 13 1014.1 1014.3 0.0
15/05:30pm 14.1 9.8 3.0 47 5.1 N 15 24 8 13 1014.3 1014.5 0.0
15/05:00pm 14.4 10.4 2.6 45 5.4 N 13 20 7 11 1014.4 1014.6 0.0
15/04:30pm 16.2 11.7 1.9 38 6.5 NNW 15 28 8 15 1014.5 1014.7 0.0
15/04:00pm 17.1 13.1 3.1 39 6.6 NNW 13 30 7 16 1014.4 1014.6 0.0
15/03:30pm 17.4 13.0 2.6 37 6.9 N 15 24 8 13 1014.5 1014.7 0.0
15/03:00pm 16.5 11.9 3.6 42 6.1 N 17 35 9 19 1014.6 1014.8 0.0
15/02:30pm 16.5 11.2 1.8 37 6.7 NNW 19 35 10 19 1015.0 1015.2 0.0

Latest Capital City Observations: Canberra | Sydney | Melbourne | Brisbane | Adelaide | Perth | Hobart | Darwin

Other formats

Comma delimited format used in spreadsheet applications
http://www.bom.gov.au/fwo/IDS60901/IDS60901.94683.axf

JavaScript Object Notation format (JSON) in row-major order
http://www.bom.gov.au/fwo/IDS60901/IDS60901.94683.json

Data quality

Most of these data are generated automatically and are frequently updated. Quality checks on data are not normally performed. It is possible for incorrect values to appear. Refer to information at About Latest Weather Observations and please check the disclaimer before using these data.